createdAt,value
2023-01-19T00:00:27.744Z,4.00
2023-01-19T00:06:29.390Z,4.65
2023-01-19T00:12:30.864Z,4.37
2023-01-19T00:18:32.359Z,4.15
2023-01-19T00:24:33.967Z,4.40
2023-01-19T00:30:35.595Z,4.97
2023-01-19T00:36:37.050Z,4.13
2023-01-19T00:42:41.569Z,4.10
2023-01-19T00:48:43.064Z,4.20
2023-01-19T00:54:44.567Z,4.80
2023-01-19T01:00:46.071Z,3.65
2023-01-19T01:06:47.685Z,4.50
2023-01-19T01:12:56.917Z,4.60
2023-01-19T01:19:00.767Z,4.22
2023-01-19T01:25:02.210Z,4.57
2023-01-19T01:31:03.710Z,3.50
2023-01-19T01:37:08.261Z,3.92
2023-01-19T01:43:11.605Z,3.53
2023-01-19T01:49:15.298Z,4.03
2023-01-19T01:55:17.922Z,3.47
2023-01-19T02:01:38.319Z,3.50
2023-01-19T02:08:04.959Z,3.83
2023-01-19T02:14:06.549Z,3.53
2023-01-19T02:20:10.593Z,3.40
2023-01-19T02:26:13.689Z,3.10
2023-01-19T02:32:15.223Z,3.20
2023-01-19T02:38:19.718Z,3.53
2023-01-19T02:44:22.877Z,3.60
2023-01-19T02:50:46.064Z,3.53
2023-01-19T02:56:55.005Z,3.30
2023-01-19T03:03:11.782Z,3.33
2023-01-19T03:09:29.395Z,2.83
2023-01-19T03:15:35.580Z,3.13
2023-01-19T03:21:38.281Z,2.72
2023-01-19T03:27:41.185Z,2.97
2023-01-19T03:33:45.029Z,3.33
2023-01-19T03:39:46.903Z,2.60
2023-01-19T03:45:48.755Z,3.27
2023-01-19T03:51:50.233Z,2.97
2023-01-19T03:57:51.809Z,2.50
2023-01-19T04:03:53.457Z,1.80
2023-01-19T04:09:54.938Z,2.50
2023-01-19T04:16:00.761Z,2.73
2023-01-19T04:22:02.325Z,2.28
2023-01-19T04:28:03.936Z,2.07
2023-01-19T04:34:05.535Z,2.30
2023-01-19T04:40:07.577Z,2.35
2023-01-19T04:46:09.230Z,2.47
2023-01-19T04:52:11.001Z,2.55
2023-01-19T04:58:12.633Z,2.70
2023-01-19T05:04:14.364Z,2.67
2023-01-19T05:10:16.501Z,2.95
2023-01-19T05:16:18.107Z,2.43
2023-01-19T05:22:19.845Z,4.45
2023-01-19T05:28:21.697Z,2.87
2023-01-19T05:34:24.256Z,3.42
2023-01-19T05:40:25.797Z,3.85
2023-01-19T05:46:27.462Z,3.67
2023-01-19T05:52:29.130Z,3.50
2023-01-19T05:58:30.901Z,3.70
2023-01-19T06:04:32.502Z,3.35
2023-01-19T06:10:34.040Z,4.13
2023-01-19T06:16:35.631Z,4.10
2023-01-19T06:22:37.300Z,3.97
2023-01-19T06:28:39.137Z,4.37
2023-01-19T06:34:43.773Z,4.50
2023-01-19T06:40:46.213Z,4.28
2023-01-19T06:46:49.045Z,5.17
2023-01-19T06:52:51.431Z,5.00
2023-01-19T06:58:54.024Z,4.70
2023-01-19T07:04:56.456Z,4.60
2023-01-19T07:11:26.101Z,5.15
2023-01-19T07:17:23.824Z,4.20
2023-01-19T07:23:25.583Z,5.10
2023-01-19T07:29:27.335Z,5.37
2023-01-19T07:35:29.694Z,4.72
2023-01-19T07:41:31.966Z,5.32
2023-01-19T07:47:33.519Z,4.67
2023-01-19T07:53:35.177Z,5.40
2023-01-19T07:59:36.919Z,5.23
2023-01-19T08:05:38.460Z,5.18
2023-01-19T08:11:40.269Z,4.75
2023-01-19T08:17:41.689Z,5.70
2023-01-19T08:23:43.233Z,5.70
2023-01-19T08:29:44.733Z,5.17
2023-01-19T08:35:50.523Z,5.40
2023-01-19T08:41:52.459Z,4.80
2023-01-19T08:47:55.223Z,4.70
2023-01-19T08:53:56.693Z,5.00
2023-01-19T08:59:58.145Z,5.00
2023-01-19T09:05:59.634Z,5.60
2023-01-19T09:12:01.137Z,4.50
2023-01-19T09:18:03.149Z,5.93
2023-01-19T09:24:05.851Z,5.70
2023-01-19T09:30:10.110Z,5.10
2023-01-19T09:36:11.596Z,5.72
2023-01-19T09:42:39.363Z,5.53
2023-01-19T09:48:43.844Z,4.60
2023-01-19T09:54:54.019Z,5.70
2023-01-19T10:00:59.004Z,5.97
2023-01-19T10:07:05.429Z,5.40
2023-01-19T10:13:19.323Z,5.60
2023-01-19T10:19:23.655Z,5.53
2023-01-19T10:25:25.500Z,6.13
2023-01-19T10:31:27.288Z,5.73
2023-01-19T10:37:30.661Z,6.25
2023-01-19T10:43:36.656Z,6.03
2023-01-19T10:49:39.663Z,6.00
2023-01-19T10:55:41.213Z,5.68
2023-01-19T11:01:42.786Z,6.07
2023-01-19T11:07:44.380Z,5.47
2023-01-19T11:14:02.137Z,6.13
2023-01-19T11:20:03.822Z,5.53
2023-01-19T11:26:05.611Z,4.60
2023-01-19T11:32:12.098Z,5.80
2023-01-19T11:38:18.192Z,5.97
2023-01-19T11:44:22.519Z,6.18
2023-01-19T11:50:25.219Z,5.57
2023-01-19T11:56:28.905Z,5.97
2023-01-19T12:02:37.769Z,5.27
2023-01-19T12:08:41.116Z,5.57
2023-01-19T12:15:03.398Z,5.20
2023-01-19T12:21:05.008Z,4.83
2023-01-19T12:27:22.365Z,4.35
2023-01-19T12:33:35.187Z,4.43
2023-01-19T12:39:47.644Z,4.38
2023-01-19T12:45:49.595Z,4.38
2023-01-19T12:51:52.289Z,4.37
2023-01-19T12:57:56.660Z,4.38
2023-01-19T13:04:00.271Z,4.23
2023-01-19T13:10:21.767Z,4.60
2023-01-19T13:16:24.956Z,4.68
2023-01-19T13:22:45.232Z,4.43
2023-01-19T13:28:49.722Z,4.72
2023-01-19T13:34:52.943Z,4.67
2023-01-19T13:40:55.663Z,4.20
2023-01-19T13:46:59.554Z,4.85
2023-01-19T13:53:01.419Z,4.43
2023-01-19T13:59:07.001Z,4.90
2023-01-19T14:05:15.596Z,4.20
2023-01-19T14:11:17.060Z,4.63
2023-01-19T14:17:21.347Z,4.30
2023-01-19T14:23:41.446Z,4.60
2023-01-19T14:29:43.667Z,4.85
2023-01-19T14:35:45.172Z,4.60
2023-01-19T14:41:48.168Z,4.20
2023-01-19T14:48:00.409Z,4.30
2023-01-19T14:54:02.557Z,4.57
2023-01-19T15:00:17.370Z,4.95
2023-01-19T15:06:20.515Z,4.27
2023-01-19T15:12:24.010Z,4.05
2023-01-19T15:18:26.708Z,4.47
2023-01-19T15:24:28.198Z,4.30
2023-01-19T15:30:31.077Z,4.32
2023-01-19T15:36:32.677Z,4.57
2023-01-19T15:42:34.477Z,4.82
2023-01-19T15:48:35.979Z,4.18
2023-01-19T15:54:37.664Z,4.57
2023-01-19T16:00:39.162Z,4.78
2023-01-19T16:06:40.746Z,4.07
2023-01-19T16:12:43.240Z,4.18
2023-01-19T16:18:44.842Z,4.47
2023-01-19T16:24:46.311Z,4.50
2023-01-19T16:30:48.587Z,4.80
2023-01-19T16:36:51.008Z,5.40
2023-01-19T16:42:52.831Z,5.00
2023-01-19T16:48:58.296Z,4.63
2023-01-19T16:54:59.951Z,5.00
2023-01-19T17:01:05.956Z,5.55
2023-01-19T17:07:08.051Z,5.40
2023-01-19T17:13:10.013Z,5.22
2023-01-19T17:19:16.984Z,5.47
2023-01-19T17:25:19.389Z,4.93
2023-01-19T17:31:22.215Z,5.18
2023-01-19T17:37:24.533Z,5.17
2023-01-19T17:43:26.942Z,5.53
2023-01-19T17:49:29.363Z,5.15
2023-01-19T17:55:34.909Z,5.10
2023-01-19T18:01:40.012Z,5.88
2023-01-19T18:07:42.356Z,4.67
2023-01-19T18:13:45.194Z,5.07
2023-01-19T18:19:47.504Z,5.15
2023-01-19T18:25:49.607Z,5.13
2023-01-19T18:31:51.753Z,5.25
2023-01-19T18:37:55.008Z,5.03
2023-01-19T18:43:58.899Z,5.47
2023-01-19T18:50:01.037Z,5.15
2023-01-19T18:56:05.292Z,5.00
2023-01-19T19:02:09.105Z,5.20
2023-01-19T19:08:12.443Z,5.10
2023-01-19T19:14:14.874Z,5.90
2023-01-19T19:20:17.746Z,5.28
2023-01-19T19:26:20.372Z,5.23
2023-01-19T19:32:22.645Z,5.43
2023-01-19T19:38:25.332Z,5.53
2023-01-19T19:44:29.282Z,5.47
2023-01-19T19:50:31.428Z,6.05
2023-01-19T19:56:34.444Z,6.63
2023-01-19T20:02:39.343Z,6.63
2023-01-19T20:08:41.508Z,5.93
2023-01-19T20:14:44.905Z,6.32
2023-01-19T20:20:47.138Z,6.57
2023-01-19T20:26:52.007Z,6.43
2023-01-19T20:32:56.241Z,6.63
2023-01-19T20:38:59.745Z,6.67
2023-01-19T20:45:02.316Z,6.40
2023-01-19T20:51:08.655Z,6.25
2023-01-19T20:57:13.174Z,5.77
2023-01-19T21:03:15.511Z,6.50
2023-01-19T21:09:18.656Z,7.50
2023-01-19T21:15:20.743Z,6.05
2023-01-19T21:21:30.309Z,6.40
2023-01-19T21:27:34.225Z,6.93
2023-01-19T21:33:36.138Z,7.15
2023-01-19T21:39:37.851Z,6.00
2023-01-19T21:45:42.783Z,5.97
2023-01-19T21:51:46.033Z,6.72
2023-01-19T21:57:49.166Z,6.63
2023-01-19T22:03:54.921Z,6.65
2023-01-19T22:09:56.433Z,6.37
2023-01-19T22:16:01.569Z,6.55
2023-01-19T22:22:03.085Z,6.40
2023-01-19T22:28:04.685Z,6.27
2023-01-19T22:34:10.414Z,6.07
2023-01-19T22:40:12.100Z,6.83
2023-01-19T22:46:16.625Z,6.50
2023-01-19T22:52:18.094Z,6.07
2023-01-19T22:58:21.472Z,5.43
2023-01-19T23:04:23.098Z,6.53
2023-01-19T23:10:24.577Z,6.43
2023-01-19T23:16:26.152Z,6.68
2023-01-19T23:22:27.634Z,6.18
2023-01-19T23:28:29.499Z,6.03
2023-01-19T23:34:31.197Z,6.47
2023-01-19T23:40:32.824Z,6.60
2023-01-19T23:46:34.321Z,6.78
2023-01-19T23:52:35.925Z,6.80
2023-01-19T23:58:37.473Z,6.97
